Santa Luzia, Brazil
Current Conditions -  °F | °C
As of 12:00 PM on Wednesday 22 Oct 2014 (Local Time) from SBIL Reporting Station
Scattered Clouds Scattered Clouds  
Wind Chill: 82°   Ceiling: Unl
Heat Index: 85°   Visibility: 6mi
Dew Point: 68°   Wind: 8mph
Humidity: 62%   Direction: 70°ENE
Pressure: 30.03"   Gusts: NA
Location:  15.43°S, 39.33°W
Report Text: SBIL 221500Z 07007KT 9999 SCT025 28/20 Q1017
Loading
Personal Weather Stations






























Interactive Weather Map
Tropical Storm Tracking
New forecast layout! Learn more

10-Day Weather Forecast

Advertisements
Track Severe Weather on mobile